Time;durP1;ratioP1;P1;durP2;ratioP2;P2;SDS_P1;SDS_P2;PMS_P1;PMS_P2;Temp;Humidity;BMP_temperature;BMP_pressure;BME280_temperature;BME280_humidity;BME280_pressure;Samples;Min_cycle;Max_cycle;Signal;HPM_P1;HPM_P2
2022/10/05 03:01:28;;;;;;;8.65;4.40;;;15.50;99.90;;;;;;6298388;22;20046;-78
2022/10/05 03:04:00;;;;;;;7.35;4.57;;;15.50;99.90;;;;;;6311513;22;20015;-79
2022/10/05 03:06:31;;;;;;;8.30;5.20;;;15.50;99.90;;;;;;6340582;22;20359;-80
2022/10/05 03:09:06;;;;;;;6.82;4.47;;;15.50;99.90;;;;;;6312803;22;20014;-80
2022/10/05 03:11:49;;;;;;;7.53;4.20;;;15.40;99.90;;;;;;6340559;22;20466;-82
2022/10/05 03:14:22;;;;;;;8.02;4.20;;;15.40;99.90;;;;;;6312953;22;20360;-82
2022/10/05 03:16:59;;;;;;;10.05;4.55;;;15.40;99.90;;;;;;6313290;22;20014;-81
2022/10/05 03:19:25;;;;;;;6.38;4.03;;;15.40;99.90;;;;;;6312780;22;20032;-85
2022/10/05 03:22:02;;;;;;;8.43;4.43;;;15.40;99.90;;;;;;6312409;22;20090;-77
2022/10/05 03:24:54;;;;;;;7.25;4.38;;;15.40;99.90;;;;;;6312601;22;20014;-79
2022/10/05 03:27:32;;;;;;;8.63;4.57;;;15.40;99.90;;;;;;6340382;22;20014;-82
2022/10/05 03:30:17;;;;;;;6.88;4.53;;;15.30;99.90;;;;;;6312299;22;20019;-83
2022/10/05 03:32:43;;;;;;;9.23;5.00;;;15.30;99.90;;;;;;6313429;22;20148;-79
2022/10/05 03:35:15;;;;;;;7.97;4.80;;;15.30;99.90;;;;;;6312387;22;20447;-78
2022/10/05 03:37:52;;;;;;;8.05;4.80;;;15.30;99.90;;;;;;6313103;22;20011;-80
2022/10/05 03:40:45;;;;;;;10.63;5.25;;;15.30;99.90;;;;;;6312413;22;20068;-84
2022/10/05 03:43:33;;;;;;;10.07;5.43;;;15.30;99.90;;;;;;6299723;22;20014;-81
2022/10/05 03:46:31;;;;;;;8.25;4.97;;;15.30;99.90;;;;;;6340700;22;20320;-77
2022/10/05 03:49:11;;;;;;;8.73;4.72;;;15.30;99.90;;;;;;6312502;22;20015;-81
2022/10/05 03:51:47;;;;;;;8.30;4.95;;;15.30;99.90;;;;;;6312410;22;20343;-82
2022/10/05 03:54:28;;;;;;;10.88;5.13;;;15.30;99.90;;;;;;6312480;22;20018;-78
2022/10/05 03:57:17;;;;;;;9.80;5.18;;;15.30;99.90;;;;;;6312252;22;20007;-81
2022/10/05 04:00:03;;;;;;;11.35;5.18;;;15.30;99.90;;;;;;6339583;22;20060;-82
2022/10/05 04:02:49;;;;;;;9.82;5.72;;;15.30;99.90;;;;;;6285685;22;20006;-81
2022/10/05 04:05:20;;;;;;;13.18;5.32;;;15.30;99.90;;;;;;6311758;22;20010;-77
2022/10/05 04:08:38;;;;;;;10.30;6.43;;;15.20;99.90;;;;;;6340582;22;20046;-80
2022/10/05 04:11:09;;;;;;;13.00;6.72;;;15.20;99.90;;;;;;6260495;22;20018;-79
2022/10/05 04:13:53;;;;;;;11.48;6.22;;;15.20;99.90;;;;;;6285731;22;20485;-83
2022/10/05 04:16:24;;;;;;;10.70;6.28;;;15.20;99.90;;;;;;6311355;22;20064;-78
2022/10/05 04:19:01;;;;;;;11.82;6.60;;;15.20;99.90;;;;;;6311813;22;20006;-82
2022/10/05 04:21:52;;;;;;;10.57;6.60;;;15.20;99.90;;;;;;6311585;22;20534;-79
2022/10/05 04:24:31;;;;;;;10.82;6.80;;;15.10;99.90;;;;;;6248603;22;20029;-79
2022/10/05 04:27:01;;;;;;;9.70;6.35;;;15.10;99.90;;;;;;6311835;22;20060;-78
2022/10/05 04:29:54;;;;;;;13.60;7.38;;;15.10;99.90;;;;;;6311102;22;20328;-78
2022/10/05 04:32:38;;;;;;;10.25;6.68;;;15.10;99.90;;;;;;6311766;22;20098;-82
2022/10/05 04:35:15;;;;;;;15.38;7.35;;;15.10;99.90;;;;;;6312610;22;20017;-81
2022/10/05 04:37:50;;;;;;;13.68;7.35;;;15.00;99.90;;;;;;6311292;22;20011;-80
2022/10/05 04:40:33;;;;;;;12.73;7.68;;;15.10;99.90;;;;;;6310503;22;20436;-84
2022/10/05 04:43:23;;;;;;;12.80;7.47;;;15.10;99.90;;;;;;6310648;22;20478;-80
2022/10/05 04:46:10;;;;;;;13.38;7.50;;;15.10;99.90;;;;;;6310296;22;20014;-82
2022/10/05 04:49:11;;;;;;;13.77;7.22;;;15.00;99.90;;;;;;6284517;22;20050;-79
2022/10/05 04:52:07;;;;;;;12.07;7.43;;;15.00;99.90;;;;;;6310495;22;20019;-82
2022/10/05 04:54:48;;;;;;;;;;;15.00;99.90;;;;;;6310754;22;20049;-81
2022/10/05 04:57:22;;;;;;;13.90;7.88;;;15.00;99.90;;;;;;6310552;22;19950;-79
2022/10/05 05:00:12;;;;;;;13.15;7.60;;;15.00;99.90;;;;;;6310320;22;20010;-78
2022/10/05 05:03:11;;;;;;;13.13;6.95;;;15.00;99.90;;;;;;6310433;22;20007;-83
2022/10/05 05:06:03;;;;;;;12.98;6.57;;;15.00;99.90;;;;;;6310008;22;20015;-83
2022/10/05 05:09:06;;;;;;;14.23;7.30;;;15.00;99.90;;;;;;6310101;22;20038;-80
2022/10/05 05:11:59;;;;;;;11.48;7.20;;;15.00;99.90;;;;;;6310171;22;20388;-79
2022/10/05 05:14:36;;;;;;;13.98;7.97;;;15.00;99.90;;;;;;6310264;22;20022;-83
2022/10/05 05:17:30;;;;;;;11.35;7.32;;;14.90;99.90;;;;;;6310129;22;20325;-83
2022/10/05 05:20:34;;;;;;;13.15;7.00;;;14.90;99.90;;;;;;6338295;22;20095;-82
2022/10/05 05:23:18;;;;;;;13.20;8.00;;;14.90;99.90;;;;;;6338219;22;20011;-78
2022/10/05 05:26:13;;;;;;;13.85;6.38;;;14.90;99.90;;;;;;6310862;22;20014;-84
2022/10/05 05:28:56;;;;;;;15.07;6.55;;;14.90;99.90;;;;;;6313589;22;20017;-81
2022/10/05 05:31:49;;;;;;;12.43;6.53;;;14.90;99.90;;;;;;6341731;22;20011;-83
2022/10/05 05:34:42;;;;;;;14.02;6.70;;;14.90;99.90;;;;;;6343972;22;20011;-85
2022/10/05 05:37:20;;;;;;;14.57;6.88;;;14.90;99.90;;;;;;6343361;22;20011;-87
2022/10/05 05:39:55;;;;;;;14.88;6.50;;;14.90;99.90;;;;;;6290606;22;20479;-85
2022/10/05 05:43:07;;;;;;;13.90;6.38;;;14.90;99.90;;;;;;6341118;22;20049;-87
2022/10/05 05:45:52;;;;;;;12.73;7.38;;;14.90;99.90;;;;;;6342371;22;20010;-87
2022/10/05 05:48:29;;;;;;;11.35;6.50;;;14.90;99.90;;;;;;6342445;22;20056;-87
2022/10/05 05:51:18;;;;;;;11.55;6.57;;;14.80;99.90;;;;;;6342341;22;20428;-81
2022/10/05 05:53:48;;;;;;;15.88;6.40;;;14.80;99.90;;;;;;6342265;22;20082;-85
2022/10/05 05:56:19;;;;;;;12.95;6.13;;;14.80;99.90;;;;;;6342488;22;20332;-84
2022/10/05 05:58:55;;;;;;;14.50;6.63;;;14.80;99.90;;;;;;6343040;22;20416;-81
2022/10/05 06:01:36;;;;;;;13.48;6.18;;;14.90;99.90;;;;;;6341990;22;20440;-85
2022/10/05 06:04:11;;;;;;;10.55;6.68;;;14.90;99.90;;;;;;6314748;22;20103;-86
2022/10/05 06:06:43;;;;;;;12.02;6.13;;;14.80;99.90;;;;;;6314851;22;20018;-82
2022/10/05 06:09:29;;;;;;;10.75;6.57;;;14.90;99.90;;;;;;6343256;22;20040;-85
2022/10/05 06:12:12;;;;;;;10.95;7.03;;;14.80;99.90;;;;;;6288838;22;20440;-84
2022/10/05 06:15:13;;;;;;;10.02;6.05;;;14.90;99.90;;;;;;6315182;22;20106;-85
2022/10/05 06:17:48;;;;;;;12.35;6.25;;;14.90;99.90;;;;;;6342949;22;20021;-85
2022/10/05 06:20:26;;;;;;;12.43;6.60;;;14.90;99.90;;;;;;6289553;22;20085;-85
2022/10/05 06:22:54;;;;;;;12.48;6.30;;;14.80;99.90;;;;;;6290026;22;20017;-85
2022/10/05 06:25:37;;;;;;;11.18;6.68;;;14.90;99.90;;;;;;6342574;22;20039;-83
2022/10/05 06:28:10;;;;;;;9.43;5.53;;;14.90;99.90;;;;;;6343032;22;20493;-85
2022/10/05 06:31:03;;;;;;;10.73;5.38;;;14.90;99.90;;;;;;6315427;22;20018;-84
2022/10/05 06:33:48;;;;;;;10.65;6.10;;;14.90;99.90;;;;;;6315609;22;20344;-86
2022/10/05 06:36:38;;;;;;;8.63;5.35;;;14.90;99.90;;;;;;6315950;22;20019;-86
2022/10/05 06:39:32;;;;;;;7.60;3.72;;;14.90;99.90;;;;;;6314005;22;20447;-85
2022/10/05 06:42:40;;;;;;;10.13;4.35;;;14.90;99.90;;;;;;6292466;22;20011;-80
2022/10/05 06:45:26;;;;;;;10.95;4.15;;;14.90;99.90;;;;;;6345789;22;20028;-86
2022/10/05 06:48:10;;;;;;;;;;;14.90;99.90;;;;;;6346954;22;20010;-78
2022/10/05 06:50:45;;;;;;;6.95;3.72;;;14.90;99.90;;;;;;6321401;22;19910;-79
2022/10/05 06:53:29;;;;;;;8.43;3.78;;;14.90;99.90;;;;;;6320893;22;20033;-79
2022/10/05 06:56:01;;;;;;;9.07;4.00;;;14.90;99.90;;;;;;6296810;22;20015;-83
2022/10/05 06:58:49;;;;;;;8.48;4.13;;;14.90;99.90;;;;;;6288412;22;20011;-85
2022/10/05 07:01:50;;;;;;;6.60;3.70;;;14.90;99.90;;;;;;6342140;22;20030;-86
2022/10/05 07:04:39;;;;;;;7.07;4.00;;;14.90;99.90;;;;;;6215981;23;20495;-85
2022/10/05 07:07:16;;;;;;;7.07;3.88;;;14.90;99.90;;;;;;6283236;22;20416;-85
2022/10/05 07:10:14;;;;;;;9.13;3.42;;;14.90;99.90;;;;;;6315174;22;20015;-86
2022/10/05 07:13:07;;;;;;;6.80;3.30;;;15.00;99.90;;;;;;6340937;22;20010;-85
2022/10/05 07:16:05;;;;;;;6.85;3.45;;;15.00;99.90;;;;;;6313679;22;20463;-86
2022/10/05 07:18:40;;;;;;;5.05;2.72;;;15.00;99.90;;;;;;6257454;22;20041;-80
2022/10/05 07:21:22;;;;;;;5.20;3.05;;;15.00;99.90;;;;;;6313125;22;20049;-88
2022/10/05 07:24:23;;;;;;;4.20;2.45;;;15.00;99.90;;;;;;6314061;22;20033;-83
2022/10/05 07:27:12;;;;;;;5.30;2.60;;;15.00;99.90;;;;;;6308237;22;20062;-86
2022/10/05 07:29:55;;;;;;;4.95;2.35;;;15.00;99.90;;;;;;6311150;22;20043;-83
2022/10/05 07:32:39;;;;;;;4.53;2.40;;;15.00;99.90;;;;;;6340183;22;20011;-82
2022/10/05 07:38:29;;;;;;;5.18;2.20;;;15.10;99.90;;;;;;6340080;22;20325;-83
2022/10/05 07:41:02;;;;;;;4.88;2.28;;;15.10;99.90;;;;;;6312956;22;20099;-83
2022/10/05 07:43:50;;;;;;;3.72;2.05;;;15.10;99.90;;;;;;6313906;22;20085;-81
2022/10/05 07:46:26;;;;;;;3.33;1.55;;;15.10;99.90;;;;;;6313457;22;20401;-80
2022/10/05 07:49:10;;;;;;;3.38;1.58;;;15.10;99.90;;;;;;6287461;22;20014;-80
2022/10/05 07:51:44;;;;;;;3.50;1.88;;;15.10;99.90;;;;;;6313570;22;20010;-82
2022/10/05 07:54:18;;;;;;;6.05;1.85;;;15.20;99.90;;;;;;6313339;22;20007;-85
2022/10/05 07:56:50;;;;;;;3.28;1.60;;;15.20;99.90;;;;;;6314233;22;20452;-87
2022/10/05 07:59:40;;;;;;;2.33;1.50;;;15.20;99.90;;;;;;6312285;22;20011;-84
2022/10/05 08:02:24;;;;;;;3.22;1.58;;;15.30;99.90;;;;;;6339277;22;20014;-81
2022/10/05 08:04:55;;;;;;;2.97;1.50;;;15.30;99.90;;;;;;6339616;22;20003;-84
2022/10/05 08:07:20;;;;;;;2.95;1.58;;;15.40;99.90;;;;;;6311398;22;20010;-82
2022/10/05 08:10:16;;;;;;;4.18;1.70;;;15.40;99.90;;;;;;6311205;22;20348;-81
2022/10/05 08:13:00;;;;;;;2.42;1.35;;;15.40;99.90;;;;;;6285842;22;20021;-81
2022/10/05 08:15:33;;;;;;;3.35;1.73;;;15.50;99.90;;;;;;6312144;22;20090;-81
2022/10/05 08:18:10;;;;;;;3.13;1.90;;;15.50;99.90;;;;;;6312599;22;20011;-81
2022/10/05 08:20:55;;;;;;;3.25;2.05;;;15.50;99.90;;;;;;6311822;22;20014;-82
2022/10/05 08:23:23;;;;;;;6.17;2.80;;;15.50;99.90;;;;;;6312708;22;20340;-81
2022/10/05 08:26:04;;;;;;;6.32;1.95;;;15.60;99.90;;;;;;6286232;22;20011;-81
2022/10/05 08:28:41;;;;;;;5.00;2.10;;;15.60;99.90;;;;;;6313235;22;20010;-79
2022/10/05 08:31:07;;;;;;;3.53;2.20;;;15.60;99.90;;;;;;6312378;22;20017;-84
2022/10/05 08:34:02;;;;;;;6.80;2.70;;;15.60;99.90;;;;;;6311894;22;20424;-82
2022/10/05 08:36:43;;;;;;;5.72;2.40;;;15.60;99.90;;;;;;6312601;22;20015;-84
2022/10/05 08:39:17;;;;;;;6.25;2.58;;;15.70;99.90;;;;;;6312252;22;20098;-85
2022/10/05 08:42:08;;;;;;;5.15;2.55;;;15.70;99.90;;;;;;6312413;22;20017;-80
2022/10/05 08:45:15;;;;;;;4.78;2.65;;;15.70;99.90;;;;;;6312780;22;20011;-83
2022/10/05 08:47:58;;;;;;;;;;;15.70;99.90;;;;;;6189061;23;20016;-81
2022/10/05 08:50:39;;;;;;;5.38;3.00;;;15.70;99.90;;;;;;6214126;23;20330;-82
2022/10/05 08:53:19;;;;;;;5.55;2.92;;;15.70;99.90;;;;;;6303566;22;20021;-85
2022/10/05 08:56:08;;;;;;;7.95;3.33;;;15.70;99.90;;;;;;6339724;22;20015;-84
2022/10/05 08:59:31;;;;;;;6.35;3.67;;;15.80;99.90;;;;;;6312085;22;20015;-83
2022/10/05 09:02:14;;;;;;;5.70;3.10;;;15.70;99.90;;;;;;6189960;23;20020;-80
2022/10/05 09:04:46;;;;;;;7.55;3.22;;;15.80;99.90;;;;;;6164954;23;20092;-81
2022/10/05 09:07:56;;;;;;;5.50;2.90;;;15.80;99.90;;;;;;6257010;22;20317;-84
2022/10/05 09:10:40;;;;;;;5.88;3.35;;;15.80;99.90;;;;;;6341467;22;20015;-80
2022/10/05 09:13:15;;;;;;;5.15;2.90;;;15.90;99.90;;;;;;6314153;22;20054;-81
2022/10/05 09:16:02;;;;;;;8.82;3.05;;;15.90;99.90;;;;;;6312941;22;20462;-84
2022/10/05 09:18:49;;;;;;;5.72;3.13;;;15.90;99.90;;;;;;6312854;22;20014;-84
2022/10/05 09:21:57;;;;;;;8.10;3.30;;;15.90;99.90;;;;;;6312848;22;20582;-80
2022/10/05 09:24:38;;;;;;;5.68;2.88;;;15.90;99.90;;;;;;6314501;22;20373;-80
2022/10/05 09:27:16;;;;;;;6.78;3.33;;;16.00;99.90;;;;;;6312869;22;20011;-78
2022/10/05 09:29:59;;;;;;;5.13;2.83;;;15.90;99.90;;;;;;6312804;22;20015;-79
2022/10/05 09:32:50;;;;;;;8.13;2.63;;;16.00;99.90;;;;;;6340364;22;20491;-82
2022/10/05 09:35:56;;;;;;;4.82;2.92;;;16.00;99.90;;;;;;6312855;22;20014;-80
2022/10/05 09:38:49;;;;;;;6.45;2.80;;;16.00;99.90;;;;;;6313188;22;20064;-81
2022/10/05 09:41:27;;;;;;;6.95;2.50;;;16.00;99.90;;;;;;6312795;22;20015;-82
2022/10/05 09:44:01;;;;;;;5.88;2.80;;;16.00;99.90;;;;;;6312774;22;20007;-80
2022/10/05 09:46:43;;;;;;;4.83;2.53;;;16.00;99.90;;;;;;6313143;22;20011;-76
2022/10/05 09:49:46;;;;;;;4.65;2.47;;;16.00;99.90;;;;;;6313015;22;20432;-79
2022/10/05 09:52:30;;;;;;;4.93;2.88;;;16.10;99.90;;;;;;6339873;22;20007;-83
2022/10/05 09:55:14;;;;;;;6.38;2.97;;;16.10;99.90;;;;;;6286743;22;20467;-78
2022/10/05 09:58:05;;;;;;;4.25;2.72;;;16.10;99.90;;;;;;6286822;22;20011;-81
2022/10/05 10:00:49;;;;;;;5.82;2.67;;;16.10;99.90;;;;;;6286740;22;20091;-84
2022/10/05 10:03:51;;;;;;;5.00;2.63;;;16.10;99.90;;;;;;6312716;22;20015;-80
2022/10/05 10:06:23;;;;;;;4.78;2.80;;;16.10;99.90;;;;;;6312702;22;20011;-82
2022/10/05 10:08:51;;;;;;;5.55;2.70;;;16.10;99.90;;;;;;6312648;22;20014;-78
2022/10/05 10:11:28;;;;;;;6.20;2.85;;;16.10;99.90;;;;;;6312721;22;20093;-78
2022/10/05 10:13:59;;;;;;;4.13;2.55;;;16.10;99.90;;;;;;6313382;22;20328;-80
2022/10/05 10:16:43;;;;;;;5.45;3.03;;;16.10;99.90;;;;;;6312553;22;20015;-80
2022/10/05 10:19:12;;;;;;;5.28;3.00;;;16.20;99.90;;;;;;6312683;22;20007;-77
2022/10/05 10:21:47;;;;;;;5.15;2.45;;;16.10;99.90;;;;;;6312925;22;20013;-79
2022/10/05 10:24:29;;;;;;;3.95;2.70;;;16.10;99.90;;;;;;6312819;22;20006;-79
2022/10/05 10:27:26;;;;;;;5.00;2.88;;;16.10;99.90;;;;;;6340193;22;20015;-81
2022/10/05 10:30:13;;;;;;;4.75;2.95;;;16.20;99.90;;;;;;6297830;22;20033;-80
2022/10/05 10:33:15;;;;;;;4.13;2.75;;;16.20;99.90;;;;;;6312621;22;20014;-79
2022/10/05 10:35:53;;;;;;;4.25;2.95;;;16.10;99.90;;;;;;6312211;22;20435;-81
2022/10/05 10:38:34;;;;;;;4.80;2.97;;;16.20;99.90;;;;;;6312373;22;20007;-79
2022/10/05 10:41:17;;;;;;;5.25;3.17;;;16.10;99.90;;;;;;6312393;22;20085;-79
2022/10/05 10:44:15;;;;;;;5.68;3.40;;;16.10;99.90;;;;;;6287849;22;20015;-81
2022/10/05 10:46:49;;;;;;;4.32;2.88;;;16.10;99.90;;;;;;6286389;22;20015;-82
2022/10/05 10:49:25;;;;;;;5.53;2.93;;;16.10;99.90;;;;;;6286599;22;20015;-79
2022/10/05 10:51:56;;;;;;;;;;;16.10;99.90;;;;;;6312605;22;20087;-84
2022/10/05 10:54:54;;;;;;;4.38;2.78;;;16.10;99.90;;;;;;6312148;22;19934;-80
2022/10/05 10:57:25;;;;;;;8.40;3.13;;;16.20;99.90;;;;;;6318157;22;20014;-84
2022/10/05 11:00:00;;;;;;;7.40;3.33;;;16.10;99.90;;;;;;6311813;22;20344;-84
2022/10/05 11:03:04;;;;;;;6.60;2.80;;;16.20;99.90;;;;;;6312027;22;20026;-80
2022/10/05 11:05:45;;;;;;;6.07;2.70;;;16.20;99.90;;;;;;6338901;22;20010;-80
2022/10/05 11:08:33;;;;;;;4.70;2.78;;;16.20;99.90;;;;;;6340320;22;20072;-80
2022/10/05 11:11:26;;;;;;;5.28;3.05;;;16.20;99.90;;;;;;6339985;22;20003;-82
2022/10/05 11:14:29;;;;;;;4.28;2.83;;;16.20;99.90;;;;;;6313401;22;20007;-80
2022/10/05 11:17:19;;;;;;;7.35;3.05;;;16.20;99.90;;;;;;6312035;22;20022;-79
2022/10/05 11:20:00;;;;;;;4.63;2.67;;;16.20;99.90;;;;;;6312114;22;20011;-82
2022/10/05 11:22:50;;;;;;;7.47;2.83;;;16.20;99.90;;;;;;6339820;22;20068;-78
2022/10/05 11:25:28;;;;;;;4.22;2.72;;;16.20;99.90;;;;;;6312449;22;20435;-81
2022/10/05 11:28:23;;;;;;;5.72;2.78;;;16.20;99.90;;;;;;6312272;22;20019;-82
2022/10/05 11:31:04;;;;;;;5.15;2.72;;;16.20;99.90;;;;;;6312769;22;20420;-81
2022/10/05 11:34:06;;;;;;;5.05;2.60;;;16.30;99.90;;;;;;6312365;22;20340;-82
2022/10/05 11:37:30;;;;;;;3.60;2.88;;;16.30;99.90;;;;;;6340163;22;20022;-82
2022/10/05 11:40:35;;;;;;;4.45;2.72;;;16.30;99.90;;;;;;6188781;23;20489;-81
2022/10/05 11:43:06;;;;;;;4.82;2.38;;;16.30;99.90;;;;;;6188947;23;20017;-82
2022/10/05 11:45:38;;;;;;;5.85;3.17;;;16.30;99.90;;;;;;6284508;22;20011;-83
2022/10/05 11:48:22;;;;;;;3.90;2.92;;;16.40;99.90;;;;;;6313519;22;20033;-80
2022/10/05 11:51:27;;;;;;;4.57;2.95;;;16.30;99.90;;;;;;6312637;22;20417;-79
2022/10/05 11:54:08;;;;;;;5.93;3.50;;;16.40;99.90;;;;;;6285794;22;20014;-81
2022/10/05 11:56:40;;;;;;;6.30;2.97;;;16.40;99.90;;;;;;6314129;22;20343;-81
2022/10/05 11:59:20;;;;;;;4.43;3.33;;;16.40;99.90;;;;;;6312522;22;20011;-83
2022/10/05 12:02:16;;;;;;;5.93;2.70;;;16.40;99.90;;;;;;6312116;22;20015;-81
2022/10/05 12:05:04;;;;;;;;;;;16.50;99.90;;;;;;6313537;22;20034;-80
2022/10/05 12:08:03;;;;;;;6.72;3.05;;;16.50;99.90;;;;;;6312996;22;19911;-82
2022/10/05 12:10:34;;;;;;;4.88;3.00;;;16.50;99.90;;;;;;6297261;22;20014;-79
2022/10/05 12:13:18;;;;;;;6.88;3.13;;;16.50;99.90;;;;;;6312858;22;20019;-81
2022/10/05 12:15:53;;;;;;;6.63;3.17;;;16.50;99.90;;;;;;6312116;22;20432;-82
2022/10/05 12:18:31;;;;;;;4.65;2.75;;;16.50;99.90;;;;;;6313185;22;20006;-81
2022/10/05 12:21:18;;;;;;;5.10;2.90;;;16.50;99.90;;;;;;6312202;22;20014;-81
2022/10/05 12:24:08;;;;;;;6.05;2.58;;;16.50;99.90;;;;;;6312498;22;20011;-81
2022/10/05 12:26:44;;;;;;;5.03;3.00;;;16.40;99.90;;;;;;6312527;22;20018;-81
2022/10/05 12:29:38;;;;;;;4.07;3.05;;;16.40;99.90;;;;;;6312825;22;20020;-81
2022/10/05 12:32:10;;;;;;;5.15;2.97;;;16.40;99.90;;;;;;6312391;22;20022;-79
2022/10/05 12:35:02;;;;;;;6.03;3.10;;;16.40;99.90;;;;;;6340706;22;20019;-82
2022/10/05 12:37:38;;;;;;;8.02;3.38;;;16.40;99.90;;;;;;6288275;22;20018;-82
2022/10/05 12:40:11;;;;;;;6.85;3.50;;;16.40;99.90;;;;;;6314676;22;20011;-80
2022/10/05 12:42:36;;;;;;;5.63;3.13;;;16.40;99.90;;;;;;6313884;22;20089;-78
2022/10/05 12:45:33;;;;;;;9.38;3.25;;;16.40;99.90;;;;;;6314733;22;20010;-79
2022/10/05 12:48:31;;;;;;;8.90;3.55;;;16.40;99.90;;;;;;6315517;22;20022;-80
2022/10/05 12:51:03;;;;;;;4.47;2.95;;;16.40;99.90;;;;;;6288357;22;20014;-82
2022/10/05 12:53:50;;;;;;;6.22;3.30;;;16.40;99.90;;;;;;6288828;22;20042;-79
2022/10/05 12:56:48;;;;;;;5.40;3.08;;;16.40;99.90;;;;;;6342900;22;20042;-81
2022/10/05 12:59:31;;;;;;;6.97;3.10;;;16.40;99.90;;;;;;6341997;22;20448;-84
2022/10/05 13:02:07;;;;;;;6.78;3.10;;;16.40;99.90;;;;;;6313924;22;20018;-82
2022/10/05 13:04:40;;;;;;;4.40;2.50;;;16.40;99.90;;;;;;6342258;22;20042;-81
2022/10/05 13:07:37;;;;;;;3.20;2.10;;;16.40;99.90;;;;;;6314211;22;20045;-80
2022/10/05 13:10:21;;;;;;;4.40;2.50;;;16.50;99.90;;;;;;6288717;22;20015;-81
2022/10/05 13:13:17;;;;;;;4.18;2.47;;;16.40;99.90;;;;;;6314579;22;20022;-81
2022/10/05 13:15:54;;;;;;;5.43;2.45;;;16.50;99.90;;;;;;6314413;22;20023;-80
2022/10/05 13:18:57;;;;;;;4.90;2.53;;;16.50;99.90;;;;;;6314245;22;20422;-84
2022/10/05 13:21:29;;;;;;;4.05;2.60;;;16.50;99.90;;;;;;6314261;22;20014;-79
2022/10/05 13:24:03;;;;;;;5.43;2.80;;;16.60;99.90;;;;;;6342739;22;20011;-81
2022/10/05 13:26:34;;;;;;;4.63;2.60;;;16.60;99.90;;;;;;6314565;22;20374;-83
2022/10/05 13:29:15;;;;;;;4.82;2.83;;;16.60;99.90;;;;;;6341725;22;20011;-81
2022/10/05 13:31:49;;;;;;;4.55;2.72;;;16.60;99.90;;;;;;6313928;22;20014;-78
2022/10/05 13:34:36;;;;;;;5.50;2.20;;;16.70;99.90;;;;;;6314060;22;20467;-81
2022/10/05 13:37:37;;;;;;;5.70;2.67;;;16.70;99.90;;;;;;6314051;22;20063;-83
2022/10/05 13:40:23;;;;;;;5.05;2.50;;;16.70;99.90;;;;;;6314048;22;20003;-80
2022/10/05 13:42:58;;;;;;;7.47;3.50;;;16.70;99.90;;;;;;6341613;22;20003;-81
2022/10/05 13:45:29;;;;;;;6.13;2.47;;;16.80;99.90;;;;;;6312954;22;20084;-79
2022/10/05 13:48:04;;;;;;;5.88;3.00;;;16.80;99.90;;;;;;6341364;22;20336;-83
2022/10/05 13:50:33;;;;;;;5.32;2.70;;;16.80;99.90;;;;;;6314126;22;20379;-83
2022/10/05 13:53:23;;;;;;;6.85;2.95;;;16.80;99.90;;;;;;6313863;22;20027;-83
2022/10/05 13:55:52;;;;;;;4.97;2.90;;;16.80;99.90;;;;;;6340806;22;20340;-82
2022/10/05 13:58:25;;;;;;;4.03;2.55;;;16.80;99.90;;;;;;6313963;22;20017;-80
2022/10/05 14:00:56;;;;;;;4.47;2.50;;;16.90;99.90;;;;;;6313544;22;20010;-79
2022/10/05 14:03:26;;;;;;;8.82;3.10;;;16.90;99.90;;;;;;6341622;22;20011;-82
2022/10/05 14:05:58;;;;;;;4.30;2.80;;;17.00;99.90;;;;;;6341395;22;20092;-84
2022/10/05 14:08:31;;;;;;;4.35;2.80;;;17.00;99.90;;;;;;6313563;22;20007;-82
2022/10/05 14:10:57;;;;;;;6.88;2.90;;;17.00;99.90;;;;;;6313163;22;20066;-80
2022/10/05 14:13:42;;;;;;;5.32;2.80;;;17.00;99.90;;;;;;6314237;22;20081;-80
2022/10/05 14:16:23;;;;;;;7.68;2.92;;;17.10;99.90;;;;;;6287566;22;20348;-80
2022/10/05 14:19:09;;;;;;;5.78;3.33;;;17.10;99.90;;;;;;6313445;22;20010;-81
2022/10/05 14:22:21;;;;;;;4.35;2.70;;;17.10;99.90;;;;;;6314323;22;20390;-81
2022/10/05 14:25:06;;;;;;;4.63;2.72;;;17.10;99.90;;;;;;6223335;22;20436;-80
2022/10/05 14:27:57;;;;;;;6.53;3.13;;;17.10;99.90;;;;;;6313248;22;20366;-82
2022/10/05 14:30:28;;;;;;;5.25;3.00;;;17.10;99.90;;;;;;6313182;22;20044;-81
2022/10/05 14:33:15;;;;;;;7.88;3.40;;;17.10;99.90;;;;;;6313836;22;20022;-84
2022/10/05 14:35:47;;;;;;;4.93;2.97;;;17.10;99.90;;;;;;6341277;22;20007;-80
2022/10/05 14:38:21;;;;;;;5.05;2.50;;;17.10;99.90;;;;;;6313239;22;20047;-81
2022/10/05 14:41:06;;;;;;;7.70;2.80;;;17.10;99.90;;;;;;6285168;22;20094;-81
2022/10/05 14:43:33;;;;;;;6.25;3.42;;;17.10;99.90;;;;;;6310715;22;20090;-82
2022/10/05 14:46:21;;;;;;;4.80;2.40;;;17.10;99.90;;;;;;6338827;22;20699;-80
2022/10/05 14:48:46;;;;;;;9.05;3.20;;;17.10;99.90;;;;;;6312677;22;20017;-82
2022/10/05 14:51:30;;;;;;;5.60;2.85;;;17.10;99.90;;;;;;6312054;22;20086;-76
2022/10/05 14:54:13;;;;;;;3.83;2.63;;;17.10;99.90;;;;;;6286319;22;20021;-82
2022/10/05 14:56:53;;;;;;;6.97;2.83;;;17.10;99.90;;;;;;6312652;22;20011;-84
2022/10/05 14:59:33;;;;;;;5.45;2.75;;;17.10;99.90;;;;;;6312234;22;20439;-79
2022/10/05 15:02:17;;;;;;;6.10;2.97;;;17.10;99.90;;;;;;6285998;22;20014;-80
2022/10/05 15:05:04;;;;;;;4.82;2.90;;;17.00;99.90;;;;;;6312804;22;20014;-78
2022/10/05 15:07:37;;;;;;;5.20;2.95;;;17.10;99.90;;;;;;6313340;22;20072;-79
2022/10/05 15:10:28;;;;;;;4.85;3.10;;;17.00;99.90;;;;;;6313314;22;20015;-84
2022/10/05 15:13:11;;;;;;;6.22;3.08;;;17.00;99.90;;;;;;6312863;22;20372;-80
2022/10/05 15:15:53;;;;;;;7.25;3.70;;;17.00;99.90;;;;;;6313116;22;20050;-79
2022/10/05 15:18:29;;;;;;;5.80;3.00;;;17.00;99.90;;;;;;6313033;22;20064;-83
2022/10/05 15:21:19;;;;;;;5.25;2.95;;;17.00;99.90;;;;;;6312739;22;20067;-79
2022/10/05 15:23:56;;;;;;;4.68;2.92;;;17.00;99.90;;;;;;6339914;22;20013;-79
2022/10/05 15:26:32;;;;;;;5.00;2.78;;;17.00;99.90;;;;;;6339635;22;20440;-79
2022/10/05 15:29:07;;;;;;;5.15;2.60;;;17.10;99.90;;;;;;6312606;22;20123;-81
2022/10/05 15:31:39;;;;;;;;;;;17.10;99.90;;;;;;6340119;22;20010;-81
2022/10/05 15:34:35;;;;;;;5.90;1.95;;;17.20;99.90;;;;;;6312219;22;19910;-80
2022/10/05 15:37:09;;;;;;;;;;;17.30;99.90;;;;;;6250529;22;20064;-79
2022/10/05 15:39:42;;;;;;;6.07;1.80;;;17.40;99.90;;;;;;6312250;22;19914;-80
2022/10/05 15:42:15;;;;;;;6.03;1.83;;;17.40;99.90;;;;;;6339800;22;20010;-75
2022/10/05 15:45:04;;;;;;;4.32;1.60;;;17.40;99.90;;;;;;6312808;22;20042;-79
2022/10/05 15:47:46;;;;;;;4.38;1.50;;;17.30;99.90;;;;;;6340637;22;20015;-81
2022/10/05 15:50:17;;;;;;;3.33;1.52;;;17.30;99.90;;;;;;6311519;22;20048;-82
2022/10/05 15:52:48;;;;;;;7.80;2.00;;;17.30;99.90;;;;;;6340357;22;20306;-81
2022/10/05 15:55:47;;;;;;;4.38;1.90;;;17.30;99.90;;;;;;6312080;22;20096;-79
2022/10/05 15:58:24;;;;;;;4.65;2.20;;;17.30;99.90;;;;;;6311635;22;20444;-79
2022/10/05 16:00:57;;;;;;;4.32;1.95;;;17.20;99.90;;;;;;6311733;22;20014;-81
2022/10/05 16:03:41;;;;;;;3.72;2.20;;;17.20;99.90;;;;;;6286116;22;20017;-81
2022/10/05 16:09:36;;;;;;;3.72;2.30;;;17.20;99.90;;;;;;6310506;22;20048;-81
2022/10/05 16:12:08;;;;;;;3.78;2.08;;;17.20;99.90;;;;;;6188052;23;20016;-82
2022/10/05 16:14:47;;;;;;;4.18;2.42;;;17.20;99.90;;;;;;6292368;22;20011;-80
2022/10/05 16:17:35;;;;;;;3.67;2.10;;;17.20;99.90;;;;;;6311501;22;20014;-79
2022/10/05 16:20:01;;;;;;;4.97;2.13;;;17.20;99.90;;;;;;6311760;22;20309;-78
2022/10/05 16:22:39;;;;;;;8.73;2.40;;;17.20;99.90;;;;;;6311693;22;20086;-83
2022/10/05 16:25:22;;;;;;;3.55;2.10;;;17.20;99.90;;;;;;6311602;22;20336;-80
2022/10/05 16:28:20;;;;;;;4.70;2.38;;;17.10;99.90;;;;;;6311806;22;20011;-80
2022/10/05 16:30:49;;;;;;;6.38;2.47;;;17.10;99.90;;;;;;6311439;22;20015;-79
2022/10/05 16:33:32;;;;;;;2.97;2.03;;;17.10;99.90;;;;;;6311839;22;20095;-81
2022/10/05 16:36:21;;;;;;;6.03;2.30;;;17.10;99.90;;;;;;6313185;22;20315;-77
2022/10/05 16:39:05;;;;;;;4.28;2.50;;;17.10;99.90;;;;;;6285949;22;20013;-81
2022/10/05 16:41:42;;;;;;;4.57;2.75;;;17.10;99.90;;;;;;6339593;22;20029;-84
2022/10/05 16:44:14;;;;;;;4.10;2.10;;;17.10;99.90;;;;;;6311286;22;20100;-80
2022/10/05 16:46:39;;;;;;;4.70;2.00;;;17.10;99.90;;;;;;6285490;22;20046;-79
2022/10/05 16:49:43;;;;;;;3.03;2.00;;;17.00;99.90;;;;;;6286337;22;20023;-78
2022/10/05 16:52:17;;;;;;;9.63;2.20;;;17.00;99.90;;;;;;6311406;22;20015;-81
2022/10/05 16:55:08;;;;;;;5.53;2.35;;;17.00;99.90;;;;;;6311388;22;20041;-80
2022/10/05 16:57:54;;;;;;;3.67;2.00;;;17.10;99.90;;;;;;6311579;22;20022;-76
2022/10/05 17:00:22;;;;;;;3.10;2.10;;;17.00;99.90;;;;;;6312408;22;20018;-80
2022/10/05 17:03:11;;;;;;;4.70;2.15;;;17.00;99.90;;;;;;6312028;22;20029;-80
2022/10/05 17:06:04;;;;;;;6.80;2.10;;;17.00;99.90;;;;;;6339548;22;20030;-81
2022/10/05 17:08:45;;;;;;;4.05;1.98;;;17.00;99.90;;;;;;6286051;22;20022;-79
2022/10/05 17:11:41;;;;;;;4.75;1.70;;;17.00;99.90;;;;;;6286036;22;20010;-81
2022/10/05 17:14:07;;;;;;;;;;;17.00;99.90;;;;;;6312233;22;20011;-80
2022/10/05 17:17:14;;;;;;;9.45;2.40;;;17.00;99.90;;;;;;6311462;22;19921;-79